Cynthiana, KY

1:27 PM EDT on July 11, 2014 (GMT -0400)
Scott County EMA/OHS (KKYGEORG5) Elev 917 ft | 38.28 °N, 84.57 °W | Change Station

Current weather conditions updated 7 seconds ago

Clear
Clear
86.0 °F
Feels Like 86 °F
N
1.0
Wind Variable Wind from ESE
Gusts 1.0 mph

Today is forecast to be nearly the same temperature as yesterday.

Today
High -- | Low -- °F
--% Chance of Precip.
Yesterday
High -- | Low -- °F
Precip. -- in
6:22 AM 9:02 PM
Waxing Gibbous, 99% visible
Pressure 30.22 in
Visibility 10.0 miles
Clouds Clear
Heat Index 86 °F
Dew Point 62 °F
Humidity 44%
Rainfall 0.00 in
Snow Depth Not available.
UV 12 out of 12
Pollen 3.30 out of 12
Air Quality Not available.
Flu Activity Sporadic
METAR KIOB 111715Z AUTO 28005KT 10SM CLR 29/15 A3022 RMK AO2

More Conditions Fewer Conditions

Pressure 30.22 in
Visibility 10.0 miles
Clouds Clear
Heat Index 86 °F
Dew Point 62 °F
Humidity 44%
Rainfall 0.00 in
Snow Depth Not available.
UV 12 out of 12
Pollen 3.30 out of 12
Air Quality Not available.
Flu Activity Sporadic
METAR KIOB 111715Z AUTO 28005KT 10SM CLR 29/15 A3022 RMK AO2

More Conditions Fewer Conditions

10-Day Weather Forecast

Almanac

Astronomy

Jul. 11, 2014 Rise Set
Actual Time 6:22 AM EDT 9:02 PM EDT
Civil Twilight 5:51 AM EDT 9:33 PM EDT
Nautical Twilight 5:12 AM EDT 10:11 PM EDT
Astronomical Twilight 4:29 AM EDT 10:55 PM EDT
Moon 8:12 PM EDT 5:33 AM EDT
Length of Visible Light 15h 41m
Length of Day
14h 39m
Tomorrow will be 1m 6s shorter.
Waxing Gibbous, 99% of the Moon is Illuminated
Today
Waxing Gibbous
Jul 12
Full
Jul 18
Last Quarter
Jul 26
New
Aug 3
First Quarter

Today's Extremes

State Highs State Lows

Community

WunderPhotos

Upload Photos

1,732,531 photos uploaded!

Nearby

Snow Depth

Station Depth Elevation
No new snow has been reported.

Earthquake Activity

City Distance Mag. Time & Date
No recent earthquake activity has been reported nearby.
Minimum magnitude displayed is 2.5.

Coastal Water Temperatures

Place Temperature
No Stations Reporting

Nearby Weather Stations

Station Location Temp. Heat Index Dew Point Humidity Wind Precip. Elev Updated Type
Scott County EMA/OHS, Georgetown, KY 86.0 °F 86 °F 62 °F 44% ESE  at  1.0 mph 0.00 in / hr 917 ft 1:27 PM EDT Rapid Fire
APRSWXNET Georgetown KY , Georgetown, KY 83 °F 85 °F 66 °F 57% WNW  at  2 mph 0.00 in / hr 816 ft 12:40 PM EDT MADIS
Old Friends, Georgetown, KY 84.2 °F 84 °F 61 °F 45% NE  at  0.0 mph 0.00 in / hr 860 ft 1:27 PM EDT Rapid Fire
Gallaway Rd. Stamping Gnd., KY, Georgetown, KY 85.8 °F 87 °F 64 °F 48% NNW  at  4.2 mph - / hr 784 ft 1:13 PM EDT Normal
Georgetown, KY 86.7 °F 89 °F 66 °F 51% ESE  at  0.0 mph - / hr 906 ft 1:12 PM EDT Normal
Williamstown Lake, Dry Ridge, KY 80.1 °F 80 °F 52 °F 37% West  at  3.6 mph 0.00 in / hr 807 ft 1:27 PM EDT Rapid Fire
Eastland, Lexington, KY 84.7 °F 85 °F 60 °F 44% ENE  at  0.0 mph - / hr 988 ft 1:21 PM EDT Normal

Show More Stations Show Fewer Stations